Time;durP1;ratioP1;P1;durP2;ratioP2;P2;SDS_P1;SDS_P2;PMS_P1;PMS_P2;Temp;Humidity;BMP_temperature;BMP_pressure;BME280_temperature;BME280_humidity;BME280_pressure;Samples;Min_cycle;Max_cycle;Signal;HPM_P1;HPM_P2
2021/09/27 00:00:53;;;;;;;1.65;1.55;;;13.90;70.60;;;;;;5014254;28;20028;-64
2021/09/27 00:03:19;;;;;;;2.45;2.17;;;13.90;70.70;;;;;;5013864;28;20037;-65
2021/09/27 00:05:47;;;;;;;3.42;2.40;;;13.80;70.80;;;;;;5014243;28;20378;-65
2021/09/27 00:08:13;;;;;;;3.17;2.30;;;13.80;70.70;;;;;;5014115;28;20026;-64
2021/09/27 00:10:47;;;;;;;2.25;1.90;;;13.80;70.70;;;;;;5014440;28;20033;-65
2021/09/27 00:13:13;;;;;;;1.92;1.83;;;13.80;70.60;;;;;;5011521;28;20126;-64
2021/09/27 00:15:42;;;;;;;2.20;1.92;;;13.80;70.60;;;;;;5013580;28;20117;-64
2021/09/27 00:18:09;;;;;;;2.33;1.90;;;13.70;70.60;;;;;;5013132;28;20038;-64
2021/09/27 00:20:38;;;;;;;2.00;1.90;;;13.70;70.90;;;;;;5013811;28;20029;-64
2021/09/27 00:23:03;;;;;;;1.88;1.70;;;13.70;70.90;;;;;;5013920;28;20105;-64
2021/09/27 00:25:29;;;;;;;2.47;1.85;;;13.70;70.90;;;;;;5014144;28;20497;-64
2021/09/27 00:27:55;;;;;;;4.38;2.13;;;13.70;70.90;;;;;;5013816;28;20108;-64
2021/09/27 00:30:21;;;;;;;2.20;2.00;;;13.70;70.90;;;;;;5013475;28;20037;-65
2021/09/27 00:32:48;;;;;;;2.00;1.83;;;13.70;70.90;;;;;;5013706;28;20486;-65
2021/09/27 00:35:18;;;;;;;2.10;1.90;;;13.70;70.90;;;;;;5013797;28;20030;-64
2021/09/27 00:37:44;;;;;;;2.10;1.95;;;13.70;70.90;;;;;;5045641;28;20029;-65
2021/09/27 00:40:13;;;;;;;1.70;1.55;;;13.70;71.00;;;;;;5005823;28;20060;-64
2021/09/27 00:42:39;;;;;;;2.60;2.00;;;13.60;71.10;;;;;;4994079;28;20027;-64
2021/09/27 00:45:06;;;;;;;2.13;1.92;;;13.70;71.30;;;;;;4995075;28;20026;-64
2021/09/27 00:47:32;;;;;;;2.97;2.10;;;13.60;71.10;;;;;;5013536;28;20026;-65
2021/09/27 00:49:58;;;;;;;2.72;2.00;;;13.60;71.10;;;;;;5013347;28;20030;-65
2021/09/27 00:52:25;;;;;;;2.30;2.10;;;13.60;71.20;;;;;;5013565;28;20033;-64
2021/09/27 00:54:52;;;;;;;3.20;2.00;;;13.60;71.30;;;;;;5013725;28;20413;-64
2021/09/27 00:57:25;;;;;;;2.92;1.92;;;13.60;71.40;;;;;;5013496;28;20030;-64
2021/09/27 00:59:54;;;;;;;2.88;2.40;;;13.60;71.40;;;;;;5013536;28;20477;-64
2021/09/27 01:02:20;;;;;;;2.22;2.03;;;13.60;71.50;;;;;;5013448;28;20496;-65
2021/09/27 01:04:47;;;;;;;1.85;1.73;;;13.60;71.40;;;;;;5012343;28;20397;-64
2021/09/27 01:07:39;;;;;;;2.72;2.10;;;13.60;71.40;;;;;;5013388;28;20022;-64
2021/09/27 01:10:26;;;;;;;2.10;2.00;;;13.70;71.30;;;;;;5012883;28;20033;-64
2021/09/27 01:13:26;;;;;;;1.70;1.60;;;13.70;71.30;;;;;;5013136;28;20101;-65
2021/09/27 01:16:19;;;;;;;2.38;1.80;;;13.70;71.40;;;;;;5013393;28;20026;-64
2021/09/27 01:19:23;;;;;;;2.40;1.80;;;13.70;71.40;;;;;;5013150;28;20061;-64
2021/09/27 01:22:04;;;;;;;1.58;1.48;;;13.70;71.50;;;;;;5012583;28;20029;-65
2021/09/27 01:25:04;;;;;;;2.45;1.80;;;13.70;71.50;;;;;;5013425;28;20104;-65
2021/09/27 01:27:47;;;;;;;2.00;1.90;;;13.70;71.30;;;;;;5013170;28;20389;-65
2021/09/27 01:30:28;;;;;;;2.65;2.08;;;13.70;71.40;;;;;;5014308;28;20018;-64
2021/09/27 01:32:59;;;;;;;1.83;1.70;;;13.70;71.40;;;;;;5017459;28;20072;-64
2021/09/27 01:35:48;;;;;;;;;;;13.60;71.40;;;;;;5017547;28;20053;-64
2021/09/27 01:38:19;;;;;;;1.80;1.70;;;13.60;71.50;;;;;;4999491;28;19952;-64
2021/09/27 01:40:51;;;;;;;3.15;2.42;;;13.60;71.50;;;;;;5015344;28;20030;-64
2021/09/27 01:43:35;;;;;;;2.65;1.77;;;13.60;71.60;;;;;;5016973;28;20294;-64
2021/09/27 01:46:18;;;;;;;1.88;1.77;;;13.50;71.60;;;;;;5016849;28;20132;-64
2021/09/27 01:49:06;;;;;;;7.38;2.10;;;13.60;71.90;;;;;;5017077;28;20377;-65
2021/09/27 01:51:41;;;;;;;2.17;2.00;;;13.50;72.00;;;;;;5016257;28;20030;-64
2021/09/27 01:54:19;;;;;;;2.88;2.05;;;13.50;72.10;;;;;;5016723;28;20395;-64
2021/09/27 01:56:56;;;;;;;2.33;2.13;;;13.50;72.10;;;;;;5016633;28;20056;-65
2021/09/27 01:59:52;;;;;;;3.22;2.00;;;13.50;72.30;;;;;;5016770;28;20057;-65
2021/09/27 02:02:53;;;;;;;2.28;1.90;;;13.50;72.00;;;;;;5016858;28;20021;-64
2021/09/27 02:05:44;;;;;;;2.25;2.05;;;13.50;72.00;;;;;;4996927;28;20027;-65
2021/09/27 02:08:34;;;;;;;2.30;2.10;;;13.40;72.10;;;;;;5006502;28;20030;-64
2021/09/27 02:11:00;;;;;;;2.67;2.22;;;13.40;72.30;;;;;;5016663;28;20380;-64
2021/09/27 02:14:12;;;;;;;2.25;2.05;;;13.40;72.20;;;;;;5009615;28;20110;-64
2021/09/27 02:16:50;;;;;;;2.00;1.80;;;13.50;72.50;;;;;;4996841;28;20030;-64
2021/09/27 02:19:28;;;;;;;1.85;1.75;;;13.50;72.40;;;;;;4996704;28;20018;-65
2021/09/27 02:21:58;;;;;;;5.18;2.15;;;13.50;72.50;;;;;;4996730;28;20113;-64
2021/09/27 02:24:38;;;;;;;3.13;2.25;;;13.40;72.20;;;;;;4996682;28;20035;-65
2021/09/27 02:27:05;;;;;;;3.42;2.25;;;13.40;72.40;;;;;;5013156;28;20474;-65
2021/09/27 02:29:31;;;;;;;2.90;2.05;;;13.40;72.40;;;;;;5016130;28;20534;-65
2021/09/27 02:32:16;;;;;;;3.13;2.20;;;13.40;72.40;;;;;;5015807;28;20117;-65
2021/09/27 02:35:00;;;;;;;2.67;2.05;;;13.40;72.30;;;;;;5016080;28;20508;-65
2021/09/27 02:37:49;;;;;;;2.53;2.03;;;13.30;72.50;;;;;;5016235;28;20022;-64
2021/09/27 02:40:43;;;;;;;1.90;1.80;;;13.30;72.70;;;;;;5015167;28;20100;-64
2021/09/27 02:43:12;;;;;;;3.15;2.08;;;13.20;72.70;;;;;;5000316;28;20532;-65
2021/09/27 02:45:39;;;;;;;1.90;1.80;;;13.20;72.90;;;;;;5015818;28;20365;-64
2021/09/27 02:48:14;;;;;;;2.15;2.00;;;13.20;73.00;;;;;;5007028;28;20029;-64
2021/09/27 02:50:47;;;;;;;2.20;2.00;;;13.20;73.00;;;;;;4996005;28;20092;-64
2021/09/27 02:53:14;;;;;;;2.33;2.05;;;13.10;73.00;;;;;;4996043;28;20026;-64
2021/09/27 02:55:59;;;;;;;2.72;2.10;;;13.10;73.20;;;;;;4995970;28;20066;-64
2021/09/27 02:58:44;;;;;;;2.33;2.13;;;13.10;73.10;;;;;;4996040;28;20030;-64
2021/09/27 03:01:21;;;;;;;2.50;2.10;;;13.10;73.20;;;;;;5015340;28;20424;-64
2021/09/27 03:03:58;;;;;;;2.40;2.20;;;13.10;73.30;;;;;;5015478;28;20032;-64
2021/09/27 03:06:39;;;;;;;2.10;1.90;;;13.00;73.30;;;;;;5015363;28;20025;-64
2021/09/27 03:09:19;;;;;;;2.97;1.83;;;13.00;73.30;;;;;;5014775;28;20026;-64
2021/09/27 03:12:09;;;;;;;5.18;2.10;;;13.00;73.40;;;;;;5015657;28;20057;-64
2021/09/27 03:14:56;;;;;;;3.22;2.33;;;13.00;73.50;;;;;;5008412;28;20041;-64
2021/09/27 03:17:31;;;;;;;2.13;1.92;;;12.90;73.30;;;;;;4995600;28;20030;-64
2021/09/27 03:20:29;;;;;;;2.40;2.20;;;12.90;73.50;;;;;;4995308;28;20022;-64
2021/09/27 03:23:14;;;;;;;2.10;1.90;;;12.90;73.60;;;;;;4997547;28;20034;-64
2021/09/27 03:26:06;;;;;;;2.22;2.05;;;12.90;73.70;;;;;;5014866;28;20026;-64
2021/09/27 03:29:11;;;;;;;2.38;1.75;;;12.90;73.80;;;;;;5015016;28;20026;-64
2021/09/27 03:31:37;;;;;;;2.30;2.00;;;12.90;73.90;;;;;;5014389;28;20025;-65
2021/09/27 03:34:27;;;;;;;2.70;2.40;;;12.80;73.90;;;;;;5015030;28;20088;-65
2021/09/27 03:37:20;;;;;;;3.40;2.70;;;12.90;74.10;;;;;;5015148;28;20128;-64
2021/09/27 03:40:07;;;;;;;1.88;1.77;;;12.90;74.20;;;;;;5014128;28;20048;-64
2021/09/27 03:42:54;;;;;;;2.33;2.10;;;12.80;74.10;;;;;;5014729;28;20028;-65
2021/09/27 03:45:35;;;;;;;2.20;2.00;;;12.80;74.20;;;;;;5014654;28;20385;-64
2021/09/27 03:48:06;;;;;;;2.40;2.20;;;12.80;74.40;;;;;;5014609;28;20057;-64
2021/09/27 03:50:45;;;;;;;3.38;2.50;;;12.80;74.30;;;;;;5014353;28;20068;-64
2021/09/27 03:53:48;;;;;;;2.20;2.00;;;12.80;74.40;;;;;;5014015;28;20037;-64
2021/09/27 03:56:24;;;;;;;3.47;2.05;;;12.80;74.40;;;;;;4971582;28;20111;-64
2021/09/27 03:59:04;;;;;;;1.90;1.67;;;12.80;74.50;;;;;;5007112;28;20048;-64
2021/09/27 04:01:46;;;;;;;2.45;1.98;;;12.80;74.70;;;;;;5014240;28;20030;-64
2021/09/27 04:04:37;;;;;;;2.50;2.30;;;12.80;74.60;;;;;;5013754;28;20052;-64
2021/09/27 04:07:22;;;;;;;3.03;1.92;;;12.80;74.70;;;;;;5014684;28;20014;-65
2021/09/27 04:10:04;;;;;;;2.53;1.90;;;12.80;74.60;;;;;;5014177;28;20048;-64
2021/09/27 04:12:41;;;;;;;3.40;2.17;;;12.70;74.70;;;;;;5014181;28;20018;-64
2021/09/27 04:15:30;;;;;;;3.10;2.22;;;12.80;74.80;;;;;;5011260;28;20382;-64
2021/09/27 04:18:41;;;;;;;2.10;1.90;;;12.80;74.90;;;;;;5013974;28;20473;-64
2021/09/27 04:21:19;;;;;;;2.20;2.00;;;12.80;74.70;;;;;;5011521;28;20076;-65
2021/09/27 04:23:59;;;;;;;3.25;2.30;;;12.80;74.80;;;;;;5014243;28;20513;-64
2021/09/27 04:27:01;;;;;;;2.65;2.05;;;12.80;74.90;;;;;;5013902;28;20065;-64
2021/09/27 04:29:29;;;;;;;;;;;12.80;74.90;;;;;;5014425;28;20124;-64
2021/09/27 04:32:16;;;;;;;1.98;1.80;;;12.70;74.80;;;;;;5013494;28;20268;-64
2021/09/27 04:34:48;;;;;;;3.47;2.20;;;12.70;74.80;;;;;;5013783;28;20052;-64
2021/09/27 04:37:17;;;;;;;2.65;2.20;;;12.80;74.90;;;;;;5013376;28;20034;-64
2021/09/27 04:39:45;;;;;;;3.83;3.10;;;12.80;75.00;;;;;;5013513;28;20074;-64
2021/09/27 04:42:25;;;;;;;4.40;2.80;;;12.80;75.60;;;;;;5013648;28;20034;-64
2021/09/27 04:45:11;;;;;;;3.60;2.30;;;12.80;74.80;;;;;;5013706;28;20420;-64
2021/09/27 04:48:22;;;;;;;2.78;2.47;;;12.80;74.90;;;;;;5013498;28;20029;-64
2021/09/27 04:51:05;;;;;;;2.47;2.05;;;12.80;74.70;;;;;;5011610;28;20444;-65
2021/09/27 04:54:16;;;;;;;2.58;2.38;;;12.80;74.80;;;;;;4994143;28;20073;-64
2021/09/27 04:56:57;;;;;;;2.60;2.10;;;12.90;74.60;;;;;;4994154;28;20027;-64
2021/09/27 04:59:35;;;;;;;2.28;2.08;;;12.90;74.50;;;;;;4993858;28;20026;-64
2021/09/27 05:02:15;;;;;;;1.90;1.80;;;12.80;74.50;;;;;;4993664;28;20026;-64
2021/09/27 05:04:53;;;;;;;2.10;1.85;;;12.90;74.50;;;;;;4998687;28;20026;-64
2021/09/27 05:08:07;;;;;;;3.55;2.05;;;12.90;74.30;;;;;;5012965;28;20029;-64
2021/09/27 05:10:45;;;;;;;1.98;1.88;;;12.90;74.30;;;;;;5011122;28;20462;-65
2021/09/27 05:13:54;;;;;;;2.25;1.90;;;12.90;74.20;;;;;;5012659;28;20030;-64
2021/09/27 05:16:37;;;;;;;3.00;1.90;;;12.90;74.20;;;;;;5010893;28;20030;-64
2021/09/27 05:19:22;;;;;;;2.60;2.35;;;12.90;74.40;;;;;;5004433;28;20544;-65
2021/09/27 05:22:01;;;;;;;1.98;1.88;;;12.90;74.20;;;;;;5003063;28;20044;-65
2021/09/27 05:24:52;;;;;;;2.78;2.22;;;12.90;74.10;;;;;;5009175;28;20085;-65
2021/09/27 05:27:42;;;;;;;1.83;1.60;;;13.00;74.30;;;;;;5005378;28;20068;-65
2021/09/27 05:30:29;;;;;;;1.88;1.63;;;13.00;74.20;;;;;;5011150;28;20046;-65
2021/09/27 05:33:07;;;;;;;2.03;1.73;;;13.00;74.20;;;;;;5006938;28;20037;-65
2021/09/27 05:35:38;;;;;;;1.92;1.75;;;13.10;74.00;;;;;;5006502;28;20034;-65
2021/09/27 05:38:25;;;;;;;2.00;1.80;;;13.10;73.80;;;;;;5011733;28;20033;-65
2021/09/27 05:41:24;;;;;;;2.25;2.03;;;13.10;73.80;;;;;;5008074;28;20523;-64
2021/09/27 05:43:56;;;;;;;2.40;1.90;;;13.10;73.70;;;;;;5011202;28;20120;-65
2021/09/27 05:46:42;;;;;;;2.05;1.90;;;13.10;73.70;;;;;;5003954;28;20113;-65
2021/09/27 05:49:13;;;;;;;1.90;1.80;;;13.10;73.70;;;;;;5006848;28;20057;-65
2021/09/27 05:52:04;;;;;;;2.90;1.98;;;13.00;73.70;;;;;;5012607;28;20038;-62
2021/09/27 05:54:40;;;;;;;1.60;1.50;;;13.10;74.00;;;;;;4990721;28;20066;-62
2021/09/27 05:57:39;;;;;;;2.15;1.95;;;13.50;74.70;;;;;;5007070;28;20030;-62
2021/09/27 06:00:23;;;;;;;1.63;1.52;;;14.20;74.40;;;;;;5004608;28;20846;-63
2021/09/27 06:03:04;;;;;;;1.70;1.60;;;14.90;72.90;;;;;;4998239;28;20030;-63
2021/09/27 06:05:38;;;;;;;1.48;1.38;;;15.30;70.80;;;;;;5001665;28;20022;-64
2021/09/27 06:08:12;;;;;;;1.80;1.70;;;15.40;70.00;;;;;;5005036;28;20030;-63
2021/09/27 06:10:57;;;;;;;1.98;1.88;;;15.40;69.60;;;;;;5003985;28;20062;-64
2021/09/27 06:13:37;;;;;;;2.72;1.70;;;15.40;69.00;;;;;;5004418;28;20034;-63
2021/09/27 06:16:21;;;;;;;1.60;1.50;;;15.40;68.60;;;;;;5006013;28;20065;-64
2021/09/27 06:19:04;;;;;;;3.10;1.48;;;15.20;68.50;;;;;;5005639;28;20045;-63
2021/09/27 06:21:48;;;;;;;1.92;1.83;;;15.00;68.70;;;;;;5009443;28;20060;-63
2021/09/27 06:24:35;;;;;;;1.95;1.55;;;14.80;68.90;;;;;;5012937;28;20084;-63
2021/09/27 06:27:06;;;;;;;2.05;1.60;;;14.70;69.40;;;;;;5006062;28;20018;-64
2021/09/27 06:29:57;;;;;;;3.00;1.83;;;14.60;69.90;;;;;;5008333;28;20109;-64
2021/09/27 06:32:53;;;;;;;1.50;1.40;;;14.40;70.30;;;;;;5005053;28;20493;-64
2021/09/27 06:35:27;;;;;;;1.85;1.40;;;14.40;70.40;;;;;;5024953;28;20095;-64
2021/09/27 06:37:53;;;;;;;1.95;1.80;;;14.30;70.60;;;;;;5001721;28;20067;-65
2021/09/27 06:40:20;;;;;;;1.75;1.65;;;14.30;70.70;;;;;;5008379;28;20042;-65
2021/09/27 06:42:47;;;;;;;1.77;1.67;;;14.30;71.00;;;;;;5005074;28;20029;-65
2021/09/27 06:45:12;;;;;;;1.50;1.40;;;14.30;71.00;;;;;;5001902;28;20438;-65
2021/09/27 06:47:38;;;;;;;1.60;1.50;;;14.30;71.00;;;;;;5007513;28;20045;-65
2021/09/27 06:50:06;;;;;;;2.33;1.60;;;14.30;71.10;;;;;;5002121;28;20026;-64
2021/09/27 06:52:31;;;;;;;2.15;1.58;;;14.30;70.90;;;;;;4998116;28;20022;-64
2021/09/27 06:54:57;;;;;;;1.73;1.55;;;14.30;70.80;;;;;;4999741;28;20036;-64
2021/09/27 06:57:23;;;;;;;2.75;1.92;;;14.30;71.00;;;;;;4997472;28;20910;-64
2021/09/27 06:59:49;;;;;;;1.83;1.73;;;14.30;71.00;;;;;;5002273;28;20101;-64
2021/09/27 07:02:14;;;;;;;1.63;1.52;;;14.30;71.00;;;;;;5005041;28;20040;-64
2021/09/27 07:04:40;;;;;;;1.80;1.70;;;14.30;70.90;;;;;;5000649;28;20040;-65
2021/09/27 07:07:06;;;;;;;1.63;1.40;;;14.40;71.00;;;;;;5004407;28;20030;-64
2021/09/27 07:09:31;;;;;;;1.50;1.40;;;14.40;71.00;;;;;;5001448;28;20029;-64
2021/09/27 07:11:57;;;;;;;2.20;1.60;;;14.40;71.10;;;;;;5003193;28;20032;-64
2021/09/27 07:14:23;;;;;;;1.60;1.50;;;14.40;71.10;;;;;;4999277;28;20033;-64
2021/09/27 07:16:49;;;;;;;1.80;1.70;;;14.40;70.90;;;;;;5006479;28;20034;-64
2021/09/27 07:19:14;;;;;;;1.50;1.40;;;14.40;70.90;;;;;;5000566;28;20151;-63
2021/09/27 07:21:42;;;;;;;1.48;1.38;;;14.50;71.00;;;;;;4999055;28;20501;-63
2021/09/27 07:24:10;;;;;;;2.15;1.80;;;14.50;71.00;;;;;;5002874;28;20042;-64
2021/09/27 07:26:36;;;;;;;2.30;2.03;;;14.50;71.00;;;;;;5006640;28;20108;-64
2021/09/27 07:29:02;;;;;;;1.45;1.35;;;14.50;70.90;;;;;;5000391;28;20041;-65
2021/09/27 07:31:30;;;;;;;2.05;1.70;;;14.60;71.10;;;;;;5004403;28;20034;-65
2021/09/27 07:33:57;;;;;;;1.75;1.65;;;14.60;71.00;;;;;;4998080;28;20477;-64
2021/09/27 07:36:24;;;;;;;1.83;1.73;;;14.60;70.90;;;;;;5000381;28;20037;-64
2021/09/27 07:38:49;;;;;;;1.70;1.60;;;14.60;70.80;;;;;;4996750;28;20041;-64
2021/09/27 07:41:16;;;;;;;1.60;1.50;;;14.60;70.80;;;;;;5000412;28;20394;-64
2021/09/27 07:43:41;;;;;;;1.70;1.60;;;14.60;70.80;;;;;;5005369;28;20078;-64
2021/09/27 07:46:07;;;;;;;1.77;1.67;;;14.60;70.70;;;;;;5004958;28;20030;-64
2021/09/27 07:48:33;;;;;;;1.73;1.63;;;14.60;70.70;;;;;;4996566;28;20053;-64
2021/09/27 07:50:59;;;;;;;2.08;1.83;;;14.70;70.50;;;;;;4996138;28;20132;-65
2021/09/27 07:53:26;;;;;;;2.03;1.77;;;14.70;70.60;;;;;;5001034;28;20041;-64
2021/09/27 07:55:52;;;;;;;2.25;1.65;;;14.70;70.30;;;;;;4996160;28;20053;-66
2021/09/27 07:58:19;;;;;;;2.50;1.30;;;14.70;70.30;;;;;;4990544;28;20062;-65
2021/09/27 08:00:46;;;;;;;1.58;1.42;;;14.70;70.20;;;;;;4996878;28;20033;-65
2021/09/27 08:03:12;;;;;;;1.33;1.17;;;14.70;70.20;;;;;;4997050;28;20030;-65
2021/09/27 08:05:38;;;;;;;1.40;1.30;;;14.70;70.00;;;;;;4998150;28;21112;-65
2021/09/27 08:08:05;;;;;;;1.98;1.30;;;14.80;69.70;;;;;;4992615;28;20026;-65
2021/09/27 08:10:32;;;;;;;1.60;1.38;;;14.80;69.30;;;;;;4987264;28;20042;-65
2021/09/27 08:12:58;;;;;;;1.08;1.08;;;14.90;69.30;;;;;;4987155;28;20092;-65
2021/09/27 08:15:28;;;;;;;1.42;1.33;;;14.90;68.90;;;;;;4999535;28;20101;-65
2021/09/27 08:17:55;;;;;;;1.17;1.17;;;14.90;68.50;;;;;;4994380;28;20065;-64
2021/09/27 08:20:27;;;;;;;1.50;1.40;;;15.00;68.20;;;;;;4997030;28;20032;-64
2021/09/27 08:22:53;;;;;;;1.00;1.00;;;15.00;68.00;;;;;;4999470;28;20039;-65
2021/09/27 08:25:22;;;;;;;1.20;1.20;;;15.00;67.80;;;;;;4991034;28;21030;-65
2021/09/27 08:27:48;;;;;;;1.13;1.05;;;15.10;67.60;;;;;;4992438;28;20095;-65
2021/09/27 08:30:18;;;;;;;0.80;0.80;;;15.20;67.60;;;;;;4996921;28;20103;-64
2021/09/27 08:32:45;;;;;;;1.08;1.08;;;15.30;67.20;;;;;;4993251;28;20038;-64
2021/09/27 08:35:12;;;;;;;1.08;1.08;;;15.40;67.10;;;;;;4994440;28;20045;-65
2021/09/27 08:37:38;;;;;;;1.73;1.05;;;15.50;66.70;;;;;;4995352;28;20651;-64
2021/09/27 08:40:04;;;;;;;0.98;0.98;;;15.50;66.30;;;;;;4999445;28;20050;-64
2021/09/27 08:42:38;;;;;;;1.38;0.80;;;15.60;66.10;;;;;;4999408;28;20053;-65
2021/09/27 08:45:09;;;;;;;0.70;0.70;;;15.70;65.90;;;;;;5000547;28;20052;-64
2021/09/27 08:47:47;;;;;;;0.82;0.82;;;15.70;65.70;;;;;;4995276;28;20591;-65
2021/09/27 08:50:26;;;;;;;0.73;0.73;;;15.80;65.30;;;;;;4993793;28;20030;-64
2021/09/27 08:52:52;;;;;;;2.05;0.80;;;15.80;65.00;;;;;;4995588;28;20039;-61
2021/09/27 08:55:19;;;;;;;0.70;0.70;;;15.90;64.70;;;;;;4996073;28;20032;-64
2021/09/27 08:58:07;;;;;;;0.77;0.77;;;15.90;64.50;;;;;;4991064;28;20038;-65
2021/09/27 09:00:54;;;;;;;0.60;0.60;;;16.00;64.10;;;;;;4983580;28;20080;-64
2021/09/27 09:03:50;;;;;;;0.57;0.57;;;16.00;63.60;;;;;;4990151;28;20112;-64
2021/09/27 09:06:34;;;;;;;0.70;0.70;;;16.00;63.00;;;;;;4990861;28;20120;-65
2021/09/27 09:09:38;;;;;;;0.70;0.70;;;16.00;62.90;;;;;;4988421;28;20047;-64
2021/09/27 09:12:31;;;;;;;0.80;0.80;;;16.00;63.10;;;;;;5000539;28;20077;-65
2021/09/27 09:15:19;;;;;;;0.65;0.63;;;16.10;63.40;;;;;;4982011;28;20426;-64
2021/09/27 09:17:56;;;;;;;0.98;0.90;;;16.20;63.30;;;;;;4994528;28;20075;-64
2021/09/27 09:20:31;;;;;;;0.93;0.93;;;16.30;63.10;;;;;;4992583;28;20030;-64
2021/09/27 09:22:58;;;;;;;0.93;0.80;;;16.30;62.90;;;;;;4988551;28;20037;-65
2021/09/27 09:25:33;;;;;;;0.85;0.85;;;16.40;62.90;;;;;;4986668;28;20072;-65
2021/09/27 09:28:02;;;;;;;1.30;0.90;;;16.40;62.50;;;;;;4992042;28;20132;-65
2021/09/27 09:30:39;;;;;;;0.63;0.63;;;16.40;62.20;;;;;;4991710;28;20036;-65
2021/09/27 09:33:05;;;;;;;0.80;0.80;;;16.40;62.10;;;;;;4991863;28;20034;-65
2021/09/27 09:35:33;;;;;;;0.70;0.70;;;16.40;62.00;;;;;;4991711;28;20030;-64
2021/09/27 09:38:05;;;;;;;0.90;0.90;;;16.50;61.80;;;;;;4998136;28;20029;-64
2021/09/27 09:40:37;;;;;;;0.88;0.88;;;16.60;61.80;;;;;;4992277;28;21938;-64
2021/09/27 09:43:10;;;;;;;0.88;0.88;;;16.60;61.40;;;;;;4993479;28;20361;-64
2021/09/27 09:45:41;;;;;;;2.00;0.88;;;16.70;61.30;;;;;;4991844;28;20026;-64
2021/09/27 09:48:12;;;;;;;0.80;0.80;;;16.70;61.30;;;;;;4996014;28;20429;-64
2021/09/27 09:50:39;;;;;;;0.40;0.40;;;16.80;61.00;;;;;;5005426;28;20030;-64
2021/09/27 09:53:20;;;;;;;0.80;0.80;;;16.80;60.50;;;;;;5005245;28;20044;-65
2021/09/27 09:56:06;;;;;;;0.73;0.70;;;16.80;60.20;;;;;;4993529;28;20037;-65
2021/09/27 09:58:46;;;;;;;0.70;0.70;;;16.80;60.00;;;;;;4995262;28;20079;-65
2021/09/27 10:01:36;;;;;;;0.90;0.80;;;16.70;60.00;;;;;;4997678;28;20037;-65
2021/09/27 10:04:21;;;;;;;0.75;0.75;;;16.70;60.30;;;;;;5007407;28;20038;-65
2021/09/27 10:06:50;;;;;;;0.95;0.80;;;16.70;60.30;;;;;;4995342;28;20040;-64
2021/09/27 10:09:30;;;;;;;0.90;0.90;;;16.70;60.20;;;;;;4993391;28;20030;-64
2021/09/27 10:12:00;;;;;;;0.80;0.80;;;16.70;60.20;;;;;;4994368;28;20517;-65
2021/09/27 10:14:28;;;;;;;0.95;0.75;;;16.70;60.20;;;;;;5001126;28;20512;-64
2021/09/27 10:17:16;;;;;;;0.70;0.70;;;16.70;60.00;;;;;;5000038;28;20141;-64
2021/09/27 10:20:07;;;;;;;0.68;0.52;;;16.70;59.90;;;;;;4985444;28;20038;-64
2021/09/27 10:22:37;;;;;;;0.50;0.50;;;16.80;59.90;;;;;;4995572;28;20033;-64
2021/09/27 10:25:42;;;;;;;1.42;0.63;;;16.80;59.70;;;;;;4994845;28;20464;-64
2021/09/27 10:28:13;;;;;;;1.00;0.93;;;16.80;59.40;;;;;;4995464;28;20068;-64
2021/09/27 10:30:55;;;;;;;0.85;0.85;;;16.80;59.40;;;;;;4999055;28;20033;-64
2021/09/27 10:33:21;;;;;;;0.50;0.50;;;16.80;59.20;;;;;;5000321;28;20492;-64
2021/09/27 10:36:11;;;;;;;0.60;0.60;;;16.80;59.30;;;;;;4995306;28;20026;-64
2021/09/27 10:38:58;;;;;;;1.50;0.75;;;16.80;59.10;;;;;;4993718;28;20121;-64
2021/09/27 10:41:37;;;;;;;0.80;0.80;;;16.80;59.20;;;;;;4998862;28;20442;-64
2021/09/27 10:44:11;;;;;;;1.02;0.90;;;16.80;59.40;;;;;;5002102;28;20029;-64
2021/09/27 10:46:40;;;;;;;0.75;0.75;;;16.80;59.30;;;;;;5004156;28;20144;-64
2021/09/27 10:49:29;;;;;;;0.70;0.70;;;16.80;59.20;;;;;;4997022;28;20030;-64
2021/09/27 10:52:06;;;;;;;0.70;0.70;;;16.80;59.10;;;;;;4996489;28;20037;-62
2021/09/27 10:54:40;;;;;;;0.77;0.77;;;16.90;59.10;;;;;;4993101;28;20026;-61
2021/09/27 10:57:13;;;;;;;1.27;0.80;;;16.90;58.70;;;;;;4996082;28;20026;-63
2021/09/27 11:00:00;;;;;;;0.80;0.80;;;16.90;58.70;;;;;;4998491;28;20035;-62
2021/09/27 11:02:31;;;;;;;0.47;0.47;;;16.90;58.40;;;;;;5000814;28;20042;-65
2021/09/27 11:05:23;;;;;;;0.63;0.63;;;16.90;58.40;;;;;;5002073;28;20032;-65
2021/09/27 11:07:53;;;;;;;0.65;0.65;;;16.80;58.30;;;;;;4995219;28;20111;-65
2021/09/27 11:10:21;;;;;;;0.70;0.70;;;16.80;58.30;;;;;;5003521;28;20037;-64
2021/09/27 11:12:50;;;;;;;0.93;0.77;;;16.80;58.40;;;;;;4994776;28;20045;-64
2021/09/27 11:15:27;;;;;;;0.52;0.52;;;16.80;58.60;;;;;;4999850;28;20018;-64
2021/09/27 11:18:06;;;;;;;0.57;0.57;;;16.80;58.60;;;;;;5001472;28;20033;-65
2021/09/27 11:20:49;;;;;;;1.00;0.80;;;16.80;58.70;;;;;;4999418;28;20026;-65
2021/09/27 11:23:27;;;;;;;0.93;0.93;;;16.90;58.70;;;;;;5001365;28;20064;-64
2021/09/27 11:26:15;;;;;;;0.60;0.60;;;16.90;58.80;;;;;;5002754;28;20029;-64
2021/09/27 11:28:52;;;;;;;0.70;0.70;;;16.90;58.70;;;;;;5005025;28;20026;-63
2021/09/27 11:31:26;;;;;;;0.60;0.57;;;16.90;58.80;;;;;;5003895;28;20511;-65
2021/09/27 11:34:05;;;;;;;0.63;0.60;;;16.90;58.50;;;;;;4998155;28;20033;-65
2021/09/27 11:36:49;;;;;;;0.50;0.50;;;16.90;58.30;;;;;;5003664;28;20045;-64
2021/09/27 11:39:16;;;;;;;1.00;0.73;;;16.90;58.30;;;;;;4994552;28;20041;-64
2021/09/27 11:42:02;;;;;;;1.35;0.60;;;16.90;58.10;;;;;;5003220;28;20057;-63
2021/09/27 11:44:32;;;;;;;0.63;0.63;;;16.80;58.20;;;;;;5005313;28;20030;-64
2021/09/27 11:47:04;;;;;;;0.80;0.80;;;16.80;58.30;;;;;;4999018;28;20033;-64
2021/09/27 11:50:17;;;;;;;0.52;0.52;;;16.80;58.20;;;;;;5001757;28;20038;-64
2021/09/27 11:52:50;;;;;;;1.02;1.02;;;16.80;58.20;;;;;;4996918;28;20073;-64
2021/09/27 11:55:28;;;;;;;0.50;0.50;;;16.70;58.40;;;;;;4997431;28;20359;-63
2021/09/27 11:58:01;;;;;;;0.55;0.55;;;16.80;58.40;;;;;;4993820;28;20050;-63
2021/09/27 12:00:37;;;;;;;0.55;0.55;;;16.80;58.40;;;;;;4999215;28;20449;-63
2021/09/27 12:03:24;;;;;;;0.80;0.80;;;16.80;58.40;;;;;;4997907;28;20037;-64
2021/09/27 12:06:00;;;;;;;0.73;0.73;;;16.90;58.20;;;;;;4997024;28;20026;-64
2021/09/27 12:08:38;;;;;;;0.98;0.77;;;16.80;58.20;;;;;;4997667;28;20770;-59
2021/09/27 12:11:10;;;;;;;0.75;0.75;;;16.90;58.10;;;;;;4996807;28;20040;-64
2021/09/27 12:13:49;;;;;;;0.60;0.60;;;16.90;58.10;;;;;;4997760;28;20945;-64
2021/09/27 12:16:20;;;;;;;0.60;0.60;;;16.90;58.10;;;;;;5001287;28;20026;-64
2021/09/27 12:18:52;;;;;;;0.50;0.50;;;16.90;58.00;;;;;;5000587;28;20040;-64
2021/09/27 12:21:40;;;;;;;1.40;0.90;;;16.80;58.00;;;;;;4994950;28;20038;-64
2021/09/27 12:24:22;;;;;;;0.63;0.63;;;16.80;58.00;;;;;;4998677;28;20026;-62
2021/09/27 12:27:07;;;;;;;0.93;0.93;;;16.80;58.10;;;;;;4998729;28;20516;-65
2021/09/27 12:29:47;;;;;;;0.90;0.90;;;16.80;58.00;;;;;;4995545;28;20517;-64
2021/09/27 12:32:13;;;;;;;0.80;0.80;;;16.90;58.10;;;;;;4997099;28;20791;-63
2021/09/27 12:34:44;;;;;;;1.75;0.80;;;16.90;58.10;;;;;;4994106;28;20030;-62
2021/09/27 12:37:13;;;;;;;0.90;0.90;;;16.90;58.20;;;;;;5000609;28;20038;-64
2021/09/27 12:39:40;;;;;;;1.20;1.17;;;16.90;58.20;;;;;;4993700;28;20089;-64
2021/09/27 12:42:11;;;;;;;0.90;0.90;;;16.90;58.40;;;;;;5002054;28;20042;-64
2021/09/27 12:44:43;;;;;;;0.93;0.93;;;17.00;58.20;;;;;;4999528;28;21340;-64
2021/09/27 12:47:10;;;;;;;1.38;1.00;;;17.00;58.30;;;;;;4995789;28;20111;-64
2021/09/27 12:49:46;;;;;;;1.38;1.10;;;17.00;58.20;;;;;;5008253;28;20026;-64
2021/09/27 12:52:34;;;;;;;1.05;1.05;;;17.00;58.30;;;;;;4995300;28;20033;-63
2021/09/27 12:55:07;;;;;;;0.95;0.95;;;17.00;58.20;;;;;;4999824;28;20469;-63
2021/09/27 12:57:41;;;;;;;0.90;0.90;;;17.00;58.00;;;;;;4997286;28;20025;-64
2021/09/27 13:00:12;;;;;;;1.88;1.30;;;17.00;57.90;;;;;;4999001;28;20061;-65
2021/09/27 13:02:43;;;;;;;0.80;0.80;;;17.00;58.20;;;;;;4997988;28;20068;-64
2021/09/27 13:05:24;;;;;;;1.40;1.10;;;17.00;58.20;;;;;;4995294;28;20034;-64
2021/09/27 13:07:59;;;;;;;1.48;0.93;;;17.00;58.10;;;;;;4998127;28;21647;-65
2021/09/27 13:10:47;;;;;;;1.60;1.35;;;17.00;58.20;;;;;;4994686;28;20046;-66
2021/09/27 13:13:24;;;;;;;1.60;0.95;;;17.00;59.00;;;;;;4999906;28;20041;-64
2021/09/27 13:16:15;;;;;;;1.50;1.40;;;17.00;58.40;;;;;;4998502;28;20036;-65
2021/09/27 13:18:45;;;;;;;0.98;0.98;;;16.90;58.40;;;;;;4996293;28;20030;-65
2021/09/27 13:21:22;;;;;;;1.10;1.10;;;16.90;58.70;;;;;;4996727;28;21408;-64
2021/09/27 13:24:24;;;;;;;1.30;1.20;;;16.90;58.90;;;;;;5005534;28;20049;-65
2021/09/27 13:26:54;;;;;;;;;;;16.80;58.90;;;;;;5001365;28;20132;-64
2021/09/27 13:29:49;;;;;;;1.00;1.00;;;16.80;59.00;;;;;;5004136;28;19913;-64
2021/09/27 13:32:18;;;;;;;1.10;1.10;;;16.80;59.00;;;;;;5008677;28;20117;-64
2021/09/27 13:35:05;;;;;;;1.45;1.35;;;16.80;59.10;;;;;;5000730;28;20371;-64
2021/09/27 13:37:41;;;;;;;1.15;1.15;;;16.70;59.20;;;;;;5000646;28;20030;-65
2021/09/27 13:40:21;;;;;;;2.75;1.45;;;16.70;59.10;;;;;;5004640;28;20042;-65